adminsub.net alexa rank chart, adminsub.net alexa rank daily changes

adminsub.net alexa rank chart, adminsub.net alexa rank daily changes

adminsub.net
Actual rank:
192 004

RANK HISTORY

Date Rank Diff
2019/07/19 192 004 -16 361
2019/07/18 208 365 -108 976
2019/07/17 317 341 +154 555
2019/07/15 162 786 -43 701
2019/07/13 206 487 -221 980
2019/07/12 428 467 +224 531
2019/07/11 203 936 +81 197
2019/07/10 122 739 +14 969
2019/07/09 107 770 -122 715
2019/07/08 230 485 0
2019/07/08 230 485 +52 718
2019/07/07 177 767 -174 043
2019/07/06 351 810 +264 531
2019/07/05 87 279 +15 854
2019/07/04 71 425 -24 610
2019/07/03 96 035 0
2019/07/03 96 035 +11 310
2019/07/02 84 725 -30 140
2019/07/01 114 865 +69 036
2019/06/30 45 829 -39 822
2019/06/29 85 651 +8 709
2019/06/28 76 942 +28 125
2019/06/27 48 817 -36 539
2019/06/26 85 356 +13 567
2019/06/25 71 789 -68 649
2019/06/24 140 438 +46 829
2019/06/23 93 609 +29 391
2019/06/22 64 218 +7 505
2019/06/21 56 713 +3 740
2019/06/20 52 973 -17 222
2019/06/19 70 195 -31 597
2019/06/18 101 792 +64 910
2019/06/17 36 882 -28 617
2019/06/16 65 499 -74 144
2019/06/15 139 643 +77 510
2019/06/14 62 133 -9 233
2019/06/13 71 366 -62 073
2019/06/12 133 439 +9 729
2019/06/11 123 710 -9 410
2019/06/10 133 120 +22 943
2019/06/09 110 177 +41 992
2019/06/08 68 185 +5 169
2019/06/07 63 016 +816
2019/06/06 62 200 +3 559
2019/06/05 58 641 -22 816
2019/06/04 81 457 -149 318
2019/06/03 230 775 +87 243
2019/06/02 143 532 +48 461
2019/06/01 95 071 +13 014
2019/05/31 82 057 -47 111
2019/05/30 129 168 +25 631
2019/05/29 103 537 +19 108
2019/05/28 84 429 +40 175
2019/05/27 44 254 -20 558
2019/05/26 64 812 -16 412
2019/05/25 81 224 +18 784
2019/05/24 62 440 -226 730
2019/05/23 289 170 +221 018
2019/05/22 68 152 +8 238
2019/05/21 59 914 -5 730
2019/05/20 65 644

WIDGET FOR YOUR SITE

DOMAINS WITH THE NEAREST RANK

Domain Rank
park-gorkogo.com 191 999
sexvideoseks.com 192 000
hstrial-eirizarry.homestead.com 192 001
noticiasdesalinas.com 192 002
hotcourses.ae 192 003
adminsub.net 192 004
etokavkaz.ru 192 005
coordinationsud.org 192 006
rellenadodecartuchos.com 192 007
extech.com 192 008
xn--37-dlcmno3cf.xn--p1ai 192 009

DOMAINS WITH THE NEAREST RANK BY TLD .net

Domain Rank
multidimensions.net 191 887
smarttemplates.net 191 913
btcgarden.net 191 945
helpjet.net 191 947
remotemouse.net 191 956
adminsub.net 192 004
increasetrafficonwebsite.net 192 034
hasenchat.net 192 066
wincert.net 192 083
mousheen.net 192 129
automobilrevue.net 192 146